CheckWX is a tool to help pilots better visualize weather data.  It is not intended as a substitute for an official pre-flight weather briefing.

03:42:20 UTC

DAUG METAR
Noumérat - Moufdi Zakaria Airport
Ghardaïa, Algeria
Current

42 mins ago

DAUG 270300Z 00000KT CAVOK 17/08 Q1014
Observed
May-27 @ 03:00 UTC
Visibility
10,000+ meters
Flight Rules
VFR
Cloud Levels
  • Clear skies
Temperature
17°C / 63°F
Dewpoint
C / 46°F
Humidity
56%
Altimeter
29.94" Hg
Pressure
1013.92 hPa
Previous

2 hours ago

DAUG 270200Z 00000KT CAVOK 18/08 Q1015
Observed
May-27 @ 02:00 UTC
Visibility
10,000+ meters
Flight Rules
VFR
Cloud Levels
  • Clear skies
Temperature
18°C / 64°F
Dewpoint
C / 46°F
Humidity
52%
Altimeter
29.97" Hg
Pressure
1014.92 hPa
Previous

3 hours ago

DAUG 270100Z 00000KT CAVOK 19/07 Q1015
Observed
May-27 @ 01:00 UTC
Visibility
10,000+ meters
Flight Rules
VFR
Cloud Levels
  • Clear skies
Temperature
19°C / 66°F
Dewpoint
C / 45°F
Humidity
46%
Altimeter
29.97" Hg
Pressure
1014.92 hPa